WetterOnline ( http://www.wetteronline.de )

Wetter aktuell Mühldorf

Aktuelles Wetter: Mühldorf am Inn (410m)

6-stündlich | Neueste Meldungen
Ortszeit Temperatur Wetter
Do, 21.03. 13:00 10.7° C leicht bewölkt
Do, 21.03. 7:00 -4.2° C wolkenlos
Do, 21.03. 1:00 -2.5° C wolkenlos
Mi, 20.03. 19:00 4.3° C wolkenlos
Mi, 20.03. 13:00 7.6° C bedeckt
Mi, 20.03. 7:00 -1.9° C bedeckt
Mi, 20.03. 1:00 -0.9° C bewölkt
Di, 19.03. 19:00 2.4° C leicht bewölkt
Ortszeit Temperatur Wetter
Do, 21.03. 14:00 12.1° C leicht bewölkt
Do, 21.03. 13:50 12.1° C leicht bewölkt
Do, 21.03. 13:40 12.2° C fast wolkenlos
Do, 21.03. 13:30 11.0° C leicht bewölkt
Do, 21.03. 13:20 11.0° C leicht bewölkt
Do, 21.03. 13:10 11.5° C leicht bewölkt
Do, 21.03. 13:00 10.7° C leicht bewölkt
Do, 21.03. 12:30 10.3° C fast wolkenlos
Do, 21.03. 12:00 10.1° C fast wolkenlos
Do, 21.03. 11:30 9.0° C wolkenlos
Do, 21.03. 11:00 8.1° C fast wolkenlos
Ortszeit Relative Feuchte Sichtweite
Do, 21.03. 13:00 31% 19 km
Do, 21.03. 7:00 88% 11 km
Do, 21.03. 1:00 94% 14 km
Mi, 20.03. 19:00 64% 40 km
Mi, 20.03. 13:00 40% 40 km
Mi, 20.03. 7:00 92% 12 km
Mi, 20.03. 1:00 90% 20 km
Di, 19.03. 19:00 68% 40 km
Ortszeit Relative Feuchte Sichtweite
Do, 21.03. 14:00 30% 22 km
Do, 21.03. 13:50 30% -
Do, 21.03. 13:40 32% -
Do, 21.03. 13:30 31% 17 km
Do, 21.03. 13:20 31% -
Do, 21.03. 13:10 31% -
Do, 21.03. 13:00 31% 19 km
Do, 21.03. 12:30 35% 15 km
Do, 21.03. 12:00 37% 25 km
Do, 21.03. 11:30 41% 20 km
Do, 21.03. 11:00 45% 21 km
Ortszeit Niederschlagsmenge Niederschlagsart
Do, 21.03. 13:00 0.0 l/m2 in 6 Std. -
Do, 21.03. 7:00 0.0 l/m2 in 12 Std. -
Do, 21.03. 1:00 0.0 l/m2 in 6 Std. -
Mi, 20.03. 19:00 0.0 l/m2 in 12 Std. -
Mi, 20.03. 13:00 0.0 l/m2 in 6 Std. -
Mi, 20.03. 7:00 0.0 l/m2 in 12 Std. -
Mi, 20.03. 1:00 0.0 l/m2 in 6 Std. -
Di, 19.03. 19:00 0.1 l/m2 in 12 Std. Regen
Ortszeit Niederschlagsmenge Niederschlagsart
Do, 21.03. 14:00 0.0 l/m2 in 1 Std. -
Do, 21.03. 13:50 keine Meldung -
Do, 21.03. 13:40 keine Meldung -
Do, 21.03. 13:30 0.0 l/m2 in 1 Std. -
Do, 21.03. 13:20 keine Meldung -
Do, 21.03. 13:10 keine Meldung -
Do, 21.03. 13:00 0.0 l/m2 in 1 Std. -
Do, 21.03. 12:30 keine Meldung -
Do, 21.03. 12:00 0.0 l/m2 in 1 Std. -
Do, 21.03. 11:30 0.0 l/m2 in 1 Std. -
Do, 21.03. 11:00 0.0 l/m2 in 1 Std. -
Ortszeit Stärke Spitze Richtung
km/h Bft. km/h Grad Sektor
Do, 21.03. 13:00 22 4 36 100° O
Do, 21.03. 7:00 0 0 4 - -
Do, 21.03. 1:00 2 1 6 110° O
Mi, 20.03. 19:00 0 0 18 - -
Mi, 20.03. 13:00 9 2 20 360° N
Mi, 20.03. 7:00 4 1 11 300° NW
Mi, 20.03. 1:00 2 1 11 270° W
Di, 19.03. 19:00 4 1 29 30° NO
Ortszeit Stärke Spitze Richtung
km/h Bft. km/h Grad Sektor
Do, 21.03. 14:00 18 3 32 90° O
Do, 21.03. 13:50 18 3 - 90° O
Do, 21.03. 13:40 18 3 - 100° O
Do, 21.03. 13:30 22 4 32 100° O
Do, 21.03. 13:20 22 4 - 100° O
Do, 21.03. 13:10 19 3 - 100° O
Do, 21.03. 13:00 22 4 36 100° O
Do, 21.03. 12:30 17 3 35 110° O
Do, 21.03. 12:00 20 4 31 90° O
Do, 21.03. 11:30 14 3 22 100° O
Do, 21.03. 11:00 14 3 22 120° SO
Ortszeit Untergrenze Bedeckung Gattung
total tief tief mittel hoch
Do, 21.03. 13:00 10500 m 7/8 0/8 - - -
Do, 21.03. 7:00 - 0/8 0/8 - - -
Do, 21.03. 1:00 - 0/8 0/8 - - -
Mi, 20.03. 19:00 - 0/8 0/8 - - -
Mi, 20.03. 13:00 1500 m 8/8 8/8 - - -
Mi, 20.03. 7:00 1800 m 8/8 8/8 - - -
Mi, 20.03. 1:00 1800 m 7/8 7/8 - - -
Di, 19.03. 19:00 2100 m 2/8 2/8 - - -
Ortszeit Bedeckungsgrad in Achtel und Wolkenuntergrenze
Do, 21.03. 14:00 4(10500m)
Do, 21.03. 13:50 4(10500m)
Do, 21.03. 13:40 1(10500m)
Do, 21.03. 13:30 3(10500m)
Do, 21.03. 13:20 3(10500m)
Do, 21.03. 13:10 6(10500m)
Do, 21.03. 13:00 7(10500m)
Do, 21.03. 12:30 1(10500m)
Do, 21.03. 12:00 2(10500m)
Do, 21.03. 11:30 keine Wolken
Do, 21.03. 11:00 1(9000m)
Ortszeit Luftdruck NN (hPa) Tendenz (hPa in 3 Std.)
Do, 21.03. 13:00 1034 - 1,5
Do, 21.03. 7:00 1037 - 0,6
Do, 21.03. 1:00 1038 0,0
Mi, 20.03. 19:00 1036 + 0,5
Mi, 20.03. 13:00 1035 + 0,3
Mi, 20.03. 7:00 1036 + 1,3
Mi, 20.03. 1:00 1034 + 1,1
Di, 19.03. 19:00 1031 + 1,8
Ortszeit Luftdruck NN (hPa) Tendenz (hPa in 3 Std.)
Do, 21.03. 14:00 1033 - 1,7
Do, 21.03. 13:50 1033 keine Meldung
Do, 21.03. 13:40 1033 keine Meldung
Do, 21.03. 13:30 1033 - 1,5
Do, 21.03. 13:20 1033 keine Meldung
Do, 21.03. 13:10 1033 keine Meldung
Do, 21.03. 13:00 1034 - 1,5
Do, 21.03. 12:30 1034 - 1,2
Do, 21.03. 12:00 1034 - 0,9
Do, 21.03. 11:30 1035 - 0,7
Do, 21.03. 11:00 1035 - 0,5
Ortszeit Schneehöhe (cm)
Do, 21.03. 13:00 0
Do, 21.03. 7:00 0
Do, 21.03. 1:00 0
Mi, 20.03. 19:00 0
Mi, 20.03. 13:00 0
Mi, 20.03. 7:00 0
Mi, 20.03. 1:00 0
Di, 19.03. 19:00 0
Ortszeit Schneehöhe (cm)
Do, 21.03. 14:00 0
Do, 21.03. 13:50 0
Do, 21.03. 13:40 0
Do, 21.03. 13:30 0
Do, 21.03. 13:20 0
Do, 21.03. 13:10 0
Do, 21.03. 13:00 0
Do, 21.03. 12:30 0
Do, 21.03. 12:00 0
Do, 21.03. 11:30 0
Do, 21.03. 11:00 0
Link zu dieser Seite / Seite empfehlen

Das Wetter in ...